sensor_id;sensor_type;location;lat;lon;timestamp;P1;durP1;ratioP1;P2;durP2;ratioP2
70342;SDS011;57767;42.068;24.752;2023-07-13T00:00:23;12.50;;;7.75;;
70342;SDS011;57767;42.068;24.752;2023-07-13T00:01:25;9.10;;;6.95;;
70342;SDS011;57767;42.068;24.752;2023-07-13T00:02:27;12.98;;;7.70;;
70342;SDS011;57767;42.068;24.752;2023-07-13T00:03:29;10.45;;;7.38;;
70342;SDS011;57767;42.068;24.752;2023-07-13T00:04:36;9.02;;;7.15;;
70342;SDS011;57767;42.068;24.752;2023-07-13T00:05:38;11.55;;;6.95;;
70342;SDS011;57767;42.068;24.752;2023-07-13T00:06:40;12.95;;;6.95;;
70342;SDS011;57767;42.068;24.752;2023-07-13T00:07:43;10.35;;;7.43;;
70342;SDS011;57767;42.068;24.752;2023-07-13T00:08:44;13.15;;;7.53;;
70342;SDS011;57767;42.068;24.752;2023-07-13T00:09:46;14.40;;;7.65;;
70342;SDS011;57767;42.068;24.752;2023-07-13T00:10:48;14.23;;;7.90;;
70342;SDS011;57767;42.068;24.752;2023-07-13T00:11:56;12.48;;;7.50;;
70342;SDS011;57767;42.068;24.752;2023-07-13T00:12:59;10.18;;;7.90;;
70342;SDS011;57767;42.068;24.752;2023-07-13T00:14:00;11.68;;;7.53;;
70342;SDS011;57767;42.068;24.752;2023-07-13T00:15:05;11.82;;;7.40;;
70342;SDS011;57767;42.068;24.752;2023-07-13T00:16:24;14.52;;;8.15;;
70342;SDS011;57767;42.068;24.752;2023-07-13T00:17:26;11.52;;;7.90;;
70342;SDS011;57767;42.068;24.752;2023-07-13T00:18:29;12.85;;;7.38;;
70342;SDS011;57767;42.068;24.752;2023-07-13T00:19:31;12.07;;;7.85;;
70342;SDS011;57767;42.068;24.752;2023-07-13T00:20:33;9.77;;;7.15;;
70342;SDS011;57767;42.068;24.752;2023-07-13T00:21:35;12.43;;;7.93;;
70342;SDS011;57767;42.068;24.752;2023-07-13T00:22:37;13.25;;;7.70;;
70342;SDS011;57767;42.068;24.752;2023-07-13T00:23:39;9.55;;;7.75;;
70342;SDS011;57767;42.068;24.752;2023-07-13T00:24:42;9.32;;;7.60;;
70342;SDS011;57767;42.068;24.752;2023-07-13T00:25:45;10.35;;;7.63;;
70342;SDS011;57767;42.068;24.752;2023-07-13T00:26:46;12.65;;;7.53;;
70342;SDS011;57767;42.068;24.752;2023-07-13T00:27:48;11.35;;;7.45;;
70342;SDS011;57767;42.068;24.752;2023-07-13T00:28:50;9.50;;;7.07;;
70342;SDS011;57767;42.068;24.752;2023-07-13T00:29:52;11.00;;;6.70;;
70342;SDS011;57767;42.068;24.752;2023-07-13T00:30:54;7.93;;;6.68;;
70342;SDS011;57767;42.068;24.752;2023-07-13T00:31:56;8.32;;;6.50;;
70342;SDS011;57767;42.068;24.752;2023-07-13T00:32:59;8.95;;;6.97;;
70342;SDS011;57767;42.068;24.752;2023-07-13T00:34:18;10.40;;;6.40;;
70342;SDS011;57767;42.068;24.752;2023-07-13T00:35:20;11.05;;;7.03;;
70342;SDS011;57767;42.068;24.752;2023-07-13T00:36:22;8.85;;;6.53;;
70342;SDS011;57767;42.068;24.752;2023-07-13T00:37:23;10.02;;;6.97;;
70342;SDS011;57767;42.068;24.752;2023-07-13T00:38:25;7.70;;;6.82;;
70342;SDS011;57767;42.068;24.752;2023-07-13T00:39:27;9.40;;;6.53;;
70342;SDS011;57767;42.068;24.752;2023-07-13T00:40:29;10.32;;;7.00;;
70342;SDS011;57767;42.068;24.752;2023-07-13T00:41:31;7.57;;;6.30;;
70342;SDS011;57767;42.068;24.752;2023-07-13T00:42:33;11.82;;;6.50;;
70342;SDS011;57767;42.068;24.752;2023-07-13T00:43:36;9.63;;;6.78;;
70342;SDS011;57767;42.068;24.752;2023-07-13T00:44:38;9.75;;;6.78;;
70342;SDS011;57767;42.068;24.752;2023-07-13T00:46:46;7.72;;;7.00;;
70342;SDS011;57767;42.068;24.752;2023-07-13T00:47:47;7.82;;;6.32;;
70342;SDS011;57767;42.068;24.752;2023-07-13T00:48:50;11.68;;;6.47;;
70342;SDS011;57767;42.068;24.752;2023-07-13T00:49:52;8.30;;;6.05;;
70342;SDS011;57767;42.068;24.752;2023-07-13T00:50:55;7.45;;;6.32;;
70342;SDS011;57767;42.068;24.752;2023-07-13T00:52:03;8.65;;;6.65;;
70342;SDS011;57767;42.068;24.752;2023-07-13T00:53:07;9.98;;;6.60;;
70342;SDS011;57767;42.068;24.752;2023-07-13T00:54:11;8.15;;;6.18;;
70342;SDS011;57767;42.068;24.752;2023-07-13T00:55:16;8.48;;;6.22;;
70342;SDS011;57767;42.068;24.752;2023-07-13T00:56:19;10.75;;;6.60;;
70342;SDS011;57767;42.068;24.752;2023-07-13T00:57:21;8.15;;;6.45;;
70342;SDS011;57767;42.068;24.752;2023-07-13T00:58:25;7.88;;;6.07;;
70342;SDS011;57767;42.068;24.752;2023-07-13T00:59:28;7.22;;;6.07;;
70342;SDS011;57767;42.068;24.752;2023-07-13T01:00:33;10.75;;;6.20;;
70342;SDS011;57767;42.068;24.752;2023-07-13T01:01:37;10.93;;;6.93;;
70342;SDS011;57767;42.068;24.752;2023-07-13T01:02:40;9.27;;;6.65;;
70342;SDS011;57767;42.068;24.752;2023-07-13T01:03:45;9.55;;;6.47;;
70342;SDS011;57767;42.068;24.752;2023-07-13T01:04:48;8.70;;;5.95;;
70342;SDS011;57767;42.068;24.752;2023-07-13T01:05:50;22.08;;;8.00;;
70342;SDS011;57767;42.068;24.752;2023-07-13T01:06:55;13.52;;;7.20;;
70342;SDS011;57767;42.068;24.752;2023-07-13T01:07:59;8.70;;;6.72;;
70342;SDS011;57767;42.068;24.752;2023-07-13T01:09:02;7.20;;;6.50;;
70342;SDS011;57767;42.068;24.752;2023-07-13T01:10:04;8.98;;;6.53;;
70342;SDS011;57767;42.068;24.752;2023-07-13T01:11:07;8.38;;;6.25;;
70342;SDS011;57767;42.068;24.752;2023-07-13T01:12:09;8.27;;;6.45;;
70342;SDS011;57767;42.068;24.752;2023-07-13T01:13:11;9.10;;;6.80;;
70342;SDS011;57767;42.068;24.752;2023-07-13T01:14:13;8.50;;;6.43;;
70342;SDS011;57767;42.068;24.752;2023-07-13T01:16:47;11.00;;;6.70;;
70342;SDS011;57767;42.068;24.752;2023-07-13T01:17:49;8.15;;;6.35;;
70342;SDS011;57767;42.068;24.752;2023-07-13T01:18:51;11.05;;;6.70;;
70342;SDS011;57767;42.068;24.752;2023-07-13T01:19:53;7.90;;;6.40;;
70342;SDS011;57767;42.068;24.752;2023-07-13T01:20:57;8.63;;;6.50;;
70342;SDS011;57767;42.068;24.752;2023-07-13T01:22:00;12.25;;;6.50;;
70342;SDS011;57767;42.068;24.752;2023-07-13T01:23:04;9.43;;;6.55;;
70342;SDS011;57767;42.068;24.752;2023-07-13T01:24:07;7.80;;;6.32;;
70342;SDS011;57767;42.068;24.752;2023-07-13T01:25:09;9.35;;;6.45;;
70342;SDS011;57767;42.068;24.752;2023-07-13T01:26:12;7.80;;;6.38;;
70342;SDS011;57767;42.068;24.752;2023-07-13T01:27:15;8.35;;;6.43;;
70342;SDS011;57767;42.068;24.752;2023-07-13T01:28:21;11.15;;;6.70;;
70342;SDS011;57767;42.068;24.752;2023-07-13T01:29:24;8.35;;;6.18;;
70342;SDS011;57767;42.068;24.752;2023-07-13T01:30:26;7.85;;;6.50;;
70342;SDS011;57767;42.068;24.752;2023-07-13T01:31:28;9.02;;;6.13;;
70342;SDS011;57767;42.068;24.752;2023-07-13T01:32:30;13.55;;;6.32;;
70342;SDS011;57767;42.068;24.752;2023-07-13T01:33:35;10.57;;;6.10;;
70342;SDS011;57767;42.068;24.752;2023-07-13T01:34:41;7.68;;;6.15;;
70342;SDS011;57767;42.068;24.752;2023-07-13T01:35:46;6.50;;;5.72;;
70342;SDS011;57767;42.068;24.752;2023-07-13T01:36:48;10.50;;;6.32;;
70342;SDS011;57767;42.068;24.752;2023-07-13T01:37:50;6.80;;;5.65;;
70342;SDS011;57767;42.068;24.752;2023-07-13T01:38:52;6.85;;;5.82;;
70342;SDS011;57767;42.068;24.752;2023-07-13T01:39:54;7.10;;;5.78;;
70342;SDS011;57767;42.068;24.752;2023-07-13T01:40:56;11.95;;;6.00;;
70342;SDS011;57767;42.068;24.752;2023-07-13T01:41:58;11.55;;;6.03;;
70342;SDS011;57767;42.068;24.752;2023-07-13T01:43:00;7.40;;;5.90;;
70342;SDS011;57767;42.068;24.752;2023-07-13T01:44:02;7.50;;;5.68;;
70342;SDS011;57767;42.068;24.752;2023-07-13T01:45:04;5.90;;;5.18;;
70342;SDS011;57767;42.068;24.752;2023-07-13T01:46:06;8.00;;;5.82;;
70342;SDS011;57767;42.068;24.752;2023-07-13T01:47:23;7.95;;;4.95;;
70342;SDS011;57767;42.068;24.752;2023-07-13T01:48:27;6.65;;;5.40;;
70342;SDS011;57767;42.068;24.752;2023-07-13T01:49:29;6.50;;;5.38;;
70342;SDS011;57767;42.068;24.752;2023-07-13T01:50:31;9.80;;;5.50;;
70342;SDS011;57767;42.068;24.752;2023-07-13T01:51:32;9.02;;;5.55;;
70342;SDS011;57767;42.068;24.752;2023-07-13T01:52:34;8.25;;;4.82;;
70342;SDS011;57767;42.068;24.752;2023-07-13T01:53:36;7.30;;;5.50;;
70342;SDS011;57767;42.068;24.752;2023-07-13T01:54:38;6.55;;;5.30;;
70342;SDS011;57767;42.068;24.752;2023-07-13T01:55:41;7.82;;;5.10;;
70342;SDS011;57767;42.068;24.752;2023-07-13T01:56:43;5.30;;;4.70;;
70342;SDS011;57767;42.068;24.752;2023-07-13T01:57:45;10.52;;;5.93;;
70342;SDS011;57767;42.068;24.752;2023-07-13T01:58:47;8.27;;;5.45;;
70342;SDS011;57767;42.068;24.752;2023-07-13T01:59:49;6.55;;;5.85;;
70342;SDS011;57767;42.068;24.752;2023-07-13T02:00:51;6.30;;;5.40;;
70342;SDS011;57767;42.068;24.752;2023-07-13T02:01:53;9.30;;;5.60;;
70342;SDS011;57767;42.068;24.752;2023-07-13T02:02:55;8.27;;;5.30;;
70342;SDS011;57767;42.068;24.752;2023-07-13T02:03:57;7.53;;;5.45;;
70342;SDS011;57767;42.068;24.752;2023-07-13T02:04:59;8.05;;;5.45;;
70342;SDS011;57767;42.068;24.752;2023-07-13T02:06:01;8.63;;;5.60;;
70342;SDS011;57767;42.068;24.752;2023-07-13T02:07:03;9.60;;;5.53;;
70342;SDS011;57767;42.068;24.752;2023-07-13T02:08:05;6.95;;;5.97;;
70342;SDS011;57767;42.068;24.752;2023-07-13T02:09:07;8.52;;;5.90;;
70342;SDS011;57767;42.068;24.752;2023-07-13T02:10:09;9.75;;;5.90;;
70342;SDS011;57767;42.068;24.752;2023-07-13T02:11:11;10.13;;;5.82;;
70342;SDS011;57767;42.068;24.752;2023-07-13T02:12:14;7.18;;;5.80;;
70342;SDS011;57767;42.068;24.752;2023-07-13T02:13:15;9.85;;;5.78;;
70342;SDS011;57767;42.068;24.752;2023-07-13T02:14:17;9.00;;;6.03;;
70342;SDS011;57767;42.068;24.752;2023-07-13T02:15:19;11.70;;;5.60;;
70342;SDS011;57767;42.068;24.752;2023-07-13T02:16:22;8.45;;;5.55;;
70342;SDS011;57767;42.068;24.752;2023-07-13T02:17:24;8.63;;;5.43;;
70342;SDS011;57767;42.068;24.752;2023-07-13T02:18:25;7.72;;;5.65;;
70342;SDS011;57767;42.068;24.752;2023-07-13T02:19:27;8.07;;;5.70;;
70342;SDS011;57767;42.068;24.752;2023-07-13T02:20:29;10.52;;;6.05;;
70342;SDS011;57767;42.068;24.752;2023-07-13T02:21:31;7.68;;;5.57;;
70342;SDS011;57767;42.068;24.752;2023-07-13T02:22:33;12.07;;;6.53;;
70342;SDS011;57767;42.068;24.752;2023-07-13T02:23:35;7.85;;;5.57;;
70342;SDS011;57767;42.068;24.752;2023-07-13T02:24:37;7.05;;;5.85;;
70342;SDS011;57767;42.068;24.752;2023-07-13T02:25:39;10.65;;;5.85;;
70342;SDS011;57767;42.068;24.752;2023-07-13T02:26:41;6.80;;;5.82;;
70342;SDS011;57767;42.068;24.752;2023-07-13T02:27:43;6.35;;;5.60;;
70342;SDS011;57767;42.068;24.752;2023-07-13T02:28:45;6.40;;;5.45;;
70342;SDS011;57767;42.068;24.752;2023-07-13T02:29:47;10.43;;;6.38;;
70342;SDS011;57767;42.068;24.752;2023-07-13T02:30:49;7.40;;;5.55;;
70342;SDS011;57767;42.068;24.752;2023-07-13T02:31:51;6.20;;;5.60;;
70342;SDS011;57767;42.068;24.752;2023-07-13T02:32:53;9.23;;;5.32;;
70342;SDS011;57767;42.068;24.752;2023-07-13T02:33:55;10.43;;;5.90;;
70342;SDS011;57767;42.068;24.752;2023-07-13T02:34:56;7.60;;;5.82;;
70342;SDS011;57767;42.068;24.752;2023-07-13T02:35:59;10.52;;;5.78;;
70342;SDS011;57767;42.068;24.752;2023-07-13T02:37:00;8.60;;;5.85;;
70342;SDS011;57767;42.068;24.752;2023-07-13T02:38:02;9.32;;;5.78;;
70342;SDS011;57767;42.068;24.752;2023-07-13T02:39:04;6.75;;;5.22;;
70342;SDS011;57767;42.068;24.752;2023-07-13T02:40:07;6.30;;;5.55;;
70342;SDS011;57767;42.068;24.752;2023-07-13T02:41:09;9.35;;;5.35;;
70342;SDS011;57767;42.068;24.752;2023-07-13T02:42:11;9.85;;;5.82;;
70342;SDS011;57767;42.068;24.752;2023-07-13T02:43:13;6.90;;;5.13;;
70342;SDS011;57767;42.068;24.752;2023-07-13T02:44:15;6.47;;;5.32;;
70342;SDS011;57767;42.068;24.752;2023-07-13T02:45:17;6.55;;;4.95;;
70342;SDS011;57767;42.068;24.752;2023-07-13T02:46:19;9.13;;;5.45;;
70342;SDS011;57767;42.068;24.752;2023-07-13T02:47:21;7.65;;;5.30;;
70342;SDS011;57767;42.068;24.752;2023-07-13T02:48:23;6.15;;;5.30;;
70342;SDS011;57767;42.068;24.752;2023-07-13T02:49:24;6.05;;;5.35;;
70342;SDS011;57767;42.068;24.752;2023-07-13T02:50:26;7.15;;;5.65;;
70342;SDS011;57767;42.068;24.752;2023-07-13T02:51:28;8.68;;;5.53;;
70342;SDS011;57767;42.068;24.752;2023-07-13T02:52:30;6.70;;;5.60;;
70342;SDS011;57767;42.068;24.752;2023-07-13T02:53:32;8.73;;;5.72;;
70342;SDS011;57767;42.068;24.752;2023-07-13T02:54:34;6.95;;;5.28;;
70342;SDS011;57767;42.068;24.752;2023-07-13T02:55:36;9.13;;;5.53;;
70342;SDS011;57767;42.068;24.752;2023-07-13T02:56:38;7.57;;;5.40;;
70342;SDS011;57767;42.068;24.752;2023-07-13T02:57:40;6.60;;;5.40;;
70342;SDS011;57767;42.068;24.752;2023-07-13T02:58:42;8.68;;;5.57;;
70342;SDS011;57767;42.068;24.752;2023-07-13T02:59:43;6.43;;;5.70;;
70342;SDS011;57767;42.068;24.752;2023-07-13T03:00:45;7.07;;;5.78;;
70342;SDS011;57767;42.068;24.752;2023-07-13T03:01:48;11.50;;;5.80;;
70342;SDS011;57767;42.068;24.752;2023-07-13T03:02:50;7.20;;;5.75;;
70342;SDS011;57767;42.068;24.752;2023-07-13T03:03:52;6.57;;;5.88;;
70342;SDS011;57767;42.068;24.752;2023-07-13T03:04:55;8.52;;;5.38;;
70342;SDS011;57767;42.068;24.752;2023-07-13T03:05:58;15.68;;;6.55;;
70342;SDS011;57767;42.068;24.752;2023-07-13T03:07:02;12.60;;;6.20;;
70342;SDS011;57767;42.068;24.752;2023-07-13T03:08:05;10.43;;;6.28;;
70342;SDS011;57767;42.068;24.752;2023-07-13T03:09:07;12.75;;;6.10;;
70342;SDS011;57767;42.068;24.752;2023-07-13T03:10:09;8.52;;;6.32;;
70342;SDS011;57767;42.068;24.752;2023-07-13T03:11:13;8.63;;;6.30;;
70342;SDS011;57767;42.068;24.752;2023-07-13T03:12:16;8.30;;;6.57;;
70342;SDS011;57767;42.068;24.752;2023-07-13T03:13:18;8.88;;;5.72;;
70342;SDS011;57767;42.068;24.752;2023-07-13T03:14:21;8.90;;;6.53;;
70342;SDS011;57767;42.068;24.752;2023-07-13T03:15:24;10.00;;;6.57;;
70342;SDS011;57767;42.068;24.752;2023-07-13T03:16:25;9.23;;;6.22;;
70342;SDS011;57767;42.068;24.752;2023-07-13T03:17:27;14.10;;;6.28;;
70342;SDS011;57767;42.068;24.752;2023-07-13T03:18:29;9.15;;;6.22;;
70342;SDS011;57767;42.068;24.752;2023-07-13T03:19:31;9.15;;;6.78;;
70342;SDS011;57767;42.068;24.752;2023-07-13T03:20:34;9.43;;;6.53;;
70342;SDS011;57767;42.068;24.752;2023-07-13T03:21:36;13.57;;;6.60;;
70342;SDS011;57767;42.068;24.752;2023-07-13T03:22:38;10.63;;;6.13;;
70342;SDS011;57767;42.068;24.752;2023-07-13T03:23:40;7.20;;;5.90;;
70342;SDS011;57767;42.068;24.752;2023-07-13T03:24:41;10.90;;;6.40;;
70342;SDS011;57767;42.068;24.752;2023-07-13T03:25:43;13.85;;;6.60;;
70342;SDS011;57767;42.068;24.752;2023-07-13T03:26:46;11.20;;;6.30;;
70342;SDS011;57767;42.068;24.752;2023-07-13T03:27:48;12.20;;;6.47;;
70342;SDS011;57767;42.068;24.752;2023-07-13T03:28:49;14.45;;;6.68;;
70342;SDS011;57767;42.068;24.752;2023-07-13T03:29:51;11.43;;;6.57;;
70342;SDS011;57767;42.068;24.752;2023-07-13T03:31:03;20.30;;;7.00;;
70342;SDS011;57767;42.068;24.752;2023-07-13T03:32:07;13.30;;;7.13;;
70342;SDS011;57767;42.068;24.752;2023-07-13T03:33:10;10.50;;;7.15;;
70342;SDS011;57767;42.068;24.752;2023-07-13T03:34:11;12.80;;;6.57;;
70342;SDS011;57767;42.068;24.752;2023-07-13T03:35:13;11.38;;;6.72;;
70342;SDS011;57767;42.068;24.752;2023-07-13T03:36:19;8.77;;;6.55;;
70342;SDS011;57767;42.068;24.752;2023-07-13T03:37:23;9.25;;;7.00;;
70342;SDS011;57767;42.068;24.752;2023-07-13T03:38:25;10.20;;;6.97;;
70342;SDS011;57767;42.068;24.752;2023-07-13T03:39:27;8.32;;;6.63;;
70342;SDS011;57767;42.068;24.752;2023-07-13T03:40:30;12.38;;;7.47;;
70342;SDS011;57767;42.068;24.752;2023-07-13T03:41:31;10.90;;;6.75;;
70342;SDS011;57767;42.068;24.752;2023-07-13T03:42:33;11.43;;;6.60;;
70342;SDS011;57767;42.068;24.752;2023-07-13T03:43:35;7.03;;;6.30;;
70342;SDS011;57767;42.068;24.752;2023-07-13T03:44:39;8.45;;;6.28;;
70342;SDS011;57767;42.068;24.752;2023-07-13T03:45:41;15.20;;;7.57;;
70342;SDS011;57767;42.068;24.752;2023-07-13T03:46:43;8.30;;;6.07;;
70342;SDS011;57767;42.068;24.752;2023-07-13T03:47:45;14.18;;;6.72;;
70342;SDS011;57767;42.068;24.752;2023-07-13T03:48:47;9.63;;;6.60;;
70342;SDS011;57767;42.068;24.752;2023-07-13T03:49:49;9.57;;;6.65;;
70342;SDS011;57767;42.068;24.752;2023-07-13T03:50:51;9.63;;;6.40;;
70342;SDS011;57767;42.068;24.752;2023-07-13T03:51:55;11.20;;;6.32;;
70342;SDS011;57767;42.068;24.752;2023-07-13T03:52:57;8.23;;;6.20;;
70342;SDS011;57767;42.068;24.752;2023-07-13T03:53:59;10.80;;;6.28;;
70342;SDS011;57767;42.068;24.752;2023-07-13T03:55:01;9.15;;;6.13;;
70342;SDS011;57767;42.068;24.752;2023-07-13T03:56:03;10.85;;;5.97;;
70342;SDS011;57767;42.068;24.752;2023-07-13T03:57:06;12.70;;;6.13;;
70342;SDS011;57767;42.068;24.752;2023-07-13T03:58:25;7.72;;;6.05;;
70342;SDS011;57767;42.068;24.752;2023-07-13T03:59:29;8.75;;;6.10;;
70342;SDS011;57767;42.068;24.752;2023-07-13T04:00:30;9.90;;;6.25;;
70342;SDS011;57767;42.068;24.752;2023-07-13T04:01:33;10.20;;;5.90;;
70342;SDS011;57767;42.068;24.752;2023-07-13T04:02:35;9.00;;;5.90;;
70342;SDS011;57767;42.068;24.752;2023-07-13T04:03:39;8.30;;;5.78;;
70342;SDS011;57767;42.068;24.752;2023-07-13T04:04:40;10.70;;;6.03;;
70342;SDS011;57767;42.068;24.752;2023-07-13T04:05:42;7.43;;;5.65;;
70342;SDS011;57767;42.068;24.752;2023-07-13T04:06:44;17.40;;;5.72;;
70342;SDS011;57767;42.068;24.752;2023-07-13T04:07:46;9.43;;;5.80;;
70342;SDS011;57767;42.068;24.752;2023-07-13T04:08:48;12.35;;;5.55;;
70342;SDS011;57767;42.068;24.752;2023-07-13T04:09:52;11.38;;;5.68;;
70342;SDS011;57767;42.068;24.752;2023-07-13T04:10:54;8.05;;;5.63;;
70342;SDS011;57767;42.068;24.752;2023-07-13T04:11:57;15.90;;;6.03;;
70342;SDS011;57767;42.068;24.752;2023-07-13T04:12:58;15.00;;;6.75;;
70342;SDS011;57767;42.068;24.752;2023-07-13T04:14:00;8.75;;;5.70;;
70342;SDS011;57767;42.068;24.752;2023-07-13T04:15:02;12.88;;;5.97;;
70342;SDS011;57767;42.068;24.752;2023-07-13T04:16:04;16.67;;;5.93;;
70342;SDS011;57767;42.068;24.752;2023-07-13T04:17:06;21.48;;;6.22;;
70342;SDS011;57767;42.068;24.752;2023-07-13T04:18:08;16.85;;;6.43;;
70342;SDS011;57767;42.068;24.752;2023-07-13T04:19:10;10.40;;;6.45;;
70342;SDS011;57767;42.068;24.752;2023-07-13T04:20:12;10.05;;;6.28;;
70342;SDS011;57767;42.068;24.752;2023-07-13T04:21:14;11.65;;;6.10;;
70342;SDS011;57767;42.068;24.752;2023-07-13T04:22:16;10.15;;;6.13;;
70342;SDS011;57767;42.068;24.752;2023-07-13T04:23:21;11.70;;;6.35;;
70342;SDS011;57767;42.068;24.752;2023-07-13T04:24:23;20.58;;;6.95;;
70342;SDS011;57767;42.068;24.752;2023-07-13T04:25:25;15.82;;;6.25;;
70342;SDS011;57767;42.068;24.752;2023-07-13T04:26:27;12.45;;;6.47;;
70342;SDS011;57767;42.068;24.752;2023-07-13T04:27:28;13.52;;;7.05;;
70342;SDS011;57767;42.068;24.752;2023-07-13T04:28:30;15.38;;;7.32;;
70342;SDS011;57767;42.068;24.752;2023-07-13T04:29:32;19.42;;;7.10;;
70342;SDS011;57767;42.068;24.752;2023-07-13T04:30:34;17.95;;;7.32;;
70342;SDS011;57767;42.068;24.752;2023-07-13T04:31:36;18.35;;;7.28;;
70342;SDS011;57767;42.068;24.752;2023-07-13T04:32:38;17.00;;;6.95;;
70342;SDS011;57767;42.068;24.752;2023-07-13T04:33:39;16.77;;;6.80;;
70342;SDS011;57767;42.068;24.752;2023-07-13T04:34:41;16.42;;;6.95;;
70342;SDS011;57767;42.068;24.752;2023-07-13T04:35:43;11.90;;;6.75;;
70342;SDS011;57767;42.068;24.752;2023-07-13T04:36:48;14.90;;;7.13;;
70342;SDS011;57767;42.068;24.752;2023-07-13T04:37:50;13.73;;;7.00;;
70342;SDS011;57767;42.068;24.752;2023-07-13T04:38:52;12.90;;;6.88;;
70342;SDS011;57767;42.068;24.752;2023-07-13T04:39:55;9.20;;;6.50;;
70342;SDS011;57767;42.068;24.752;2023-07-13T04:40:58;9.30;;;6.63;;
70342;SDS011;57767;42.068;24.752;2023-07-13T04:42:02;9.55;;;6.60;;
70342;SDS011;57767;42.068;24.752;2023-07-13T04:43:04;7.72;;;6.20;;
70342;SDS011;57767;42.068;24.752;2023-07-13T04:44:06;8.15;;;6.57;;
70342;SDS011;57767;42.068;24.752;2023-07-13T04:45:08;9.40;;;6.68;;
70342;SDS011;57767;42.068;24.752;2023-07-13T04:46:11;14.68;;;6.78;;
70342;SDS011;57767;42.068;24.752;2023-07-13T04:47:14;10.85;;;6.25;;
70342;SDS011;57767;42.068;24.752;2023-07-13T04:48:16;13.05;;;6.68;;
70342;SDS011;57767;42.068;24.752;2023-07-13T04:49:18;11.85;;;6.18;;
70342;SDS011;57767;42.068;24.752;2023-07-13T04:50:20;8.07;;;6.55;;
70342;SDS011;57767;42.068;24.752;2023-07-13T04:51:24;11.10;;;6.40;;
70342;SDS011;57767;42.068;24.752;2023-07-13T04:52:27;8.65;;;6.25;;
70342;SDS011;57767;42.068;24.752;2023-07-13T04:53:29;11.15;;;7.15;;
70342;SDS011;57767;42.068;24.752;2023-07-13T04:54:34;8.98;;;6.63;;
70342;SDS011;57767;42.068;24.752;2023-07-13T04:55:36;7.63;;;6.15;;
70342;SDS011;57767;42.068;24.752;2023-07-13T04:56:38;9.75;;;6.57;;
70342;SDS011;57767;42.068;24.752;2023-07-13T04:57:40;9.18;;;6.63;;
70342;SDS011;57767;42.068;24.752;2023-07-13T04:58:42;9.75;;;6.25;;
70342;SDS011;57767;42.068;24.752;2023-07-13T04:59:44;9.15;;;6.63;;
70342;SDS011;57767;42.068;24.752;2023-07-13T05:00:46;7.75;;;6.53;;
70342;SDS011;57767;42.068;24.752;2023-07-13T05:01:50;9.93;;;6.00;;
70342;SDS011;57767;42.068;24.752;2023-07-13T05:02:53;7.30;;;6.32;;
70342;SDS011;57767;42.068;24.752;2023-07-13T05:03:59;11.00;;;6.07;;
70342;SDS011;57767;42.068;24.752;2023-07-13T05:05:01;11.60;;;6.10;;
70342;SDS011;57767;42.068;24.752;2023-07-13T05:06:06;8.15;;;5.88;;
70342;SDS011;57767;42.068;24.752;2023-07-13T05:07:11;7.57;;;6.80;;
70342;SDS011;57767;42.068;24.752;2023-07-13T05:08:13;11.35;;;6.85;;
70342;SDS011;57767;42.068;24.752;2023-07-13T05:09:15;9.20;;;6.53;;
70342;SDS011;57767;42.068;24.752;2023-07-13T05:10:17;9.40;;;6.60;;
70342;SDS011;57767;42.068;24.752;2023-07-13T05:11:19;10.30;;;6.93;;
70342;SDS011;57767;42.068;24.752;2023-07-13T05:12:20;11.90;;;6.60;;
70342;SDS011;57767;42.068;24.752;2023-07-13T05:13:22;8.55;;;6.57;;
70342;SDS011;57767;42.068;24.752;2023-07-13T05:14:27;9.27;;;6.25;;
70342;SDS011;57767;42.068;24.752;2023-07-13T05:15:29;8.85;;;6.68;;
70342;SDS011;57767;42.068;24.752;2023-07-13T05:16:31;9.05;;;6.80;;
70342;SDS011;57767;42.068;24.752;2023-07-13T05:17:33;10.35;;;7.13;;
70342;SDS011;57767;42.068;24.752;2023-07-13T05:18:36;9.50;;;6.53;;
70342;SDS011;57767;42.068;24.752;2023-07-13T05:19:41;10.93;;;6.40;;
70342;SDS011;57767;42.068;24.752;2023-07-13T05:20:43;11.13;;;7.03;;
70342;SDS011;57767;42.068;24.752;2023-07-13T05:21:45;8.82;;;6.55;;
70342;SDS011;57767;42.068;24.752;2023-07-13T05:22:47;10.07;;;6.60;;
70342;SDS011;57767;42.068;24.752;2023-07-13T05:23:49;9.30;;;6.35;;
70342;SDS011;57767;42.068;24.752;2023-07-13T05:24:51;10.55;;;6.00;;
70342;SDS011;57767;42.068;24.752;2023-07-13T05:25:53;10.38;;;6.72;;
70342;SDS011;57767;42.068;24.752;2023-07-13T05:26:55;14.38;;;6.65;;
70342;SDS011;57767;42.068;24.752;2023-07-13T05:27:57;11.10;;;6.55;;
70342;SDS011;57767;42.068;24.752;2023-07-13T05:28:59;11.23;;;6.38;;
70342;SDS011;57767;42.068;24.752;2023-07-13T05:30:01;10.10;;;6.78;;
70342;SDS011;57767;42.068;24.752;2023-07-13T05:31:04;8.48;;;6.72;;
70342;SDS011;57767;42.068;24.752;2023-07-13T05:32:07;11.07;;;6.90;;
70342;SDS011;57767;42.068;24.752;2023-07-13T05:33:08;8.52;;;6.60;;
70342;SDS011;57767;42.068;24.752;2023-07-13T05:34:10;9.77;;;6.63;;
70342;SDS011;57767;42.068;24.752;2023-07-13T05:35:12;12.02;;;6.85;;
70342;SDS011;57767;42.068;24.752;2023-07-13T05:36:14;7.88;;;6.93;;
70342;SDS011;57767;42.068;24.752;2023-07-13T05:37:15;11.23;;;7.10;;
70342;SDS011;57767;42.068;24.752;2023-07-13T05:38:17;13.43;;;7.25;;
70342;SDS011;57767;42.068;24.752;2023-07-13T05:39:19;14.40;;;7.28;;
70342;SDS011;57767;42.068;24.752;2023-07-13T05:40:21;7.53;;;6.80;;
70342;SDS011;57767;42.068;24.752;2023-07-13T05:41:23;9.80;;;7.40;;
70342;SDS011;57767;42.068;24.752;2023-07-13T05:42:25;18.50;;;7.07;;
70342;SDS011;57767;42.068;24.752;2023-07-13T05:43:29;9.65;;;6.63;;
70342;SDS011;57767;42.068;24.752;2023-07-13T05:44:30;10.32;;;6.50;;
70342;SDS011;57767;42.068;24.752;2023-07-13T05:45:32;10.25;;;6.63;;
70342;SDS011;57767;42.068;24.752;2023-07-13T05:46:34;12.75;;;6.93;;
70342;SDS011;57767;42.068;24.752;2023-07-13T05:47:36;13.40;;;6.60;;
70342;SDS011;57767;42.068;24.752;2023-07-13T05:48:38;17.83;;;7.90;;
70342;SDS011;57767;42.068;24.752;2023-07-13T05:49:40;9.05;;;7.13;;
70342;SDS011;57767;42.068;24.752;2023-07-13T05:50:42;7.63;;;6.50;;
70342;SDS011;57767;42.068;24.752;2023-07-13T05:51:44;8.82;;;6.70;;
70342;SDS011;57767;42.068;24.752;2023-07-13T05:52:45;10.32;;;6.68;;
70342;SDS011;57767;42.068;24.752;2023-07-13T05:53:47;12.07;;;6.53;;
70342;SDS011;57767;42.068;24.752;2023-07-13T05:54:49;9.27;;;6.53;;
70342;SDS011;57767;42.068;24.752;2023-07-13T05:57:20;11.18;;;7.45;;
70342;SDS011;57767;42.068;24.752;2023-07-13T05:58:22;8.18;;;6.38;;
70342;SDS011;57767;42.068;24.752;2023-07-13T05:59:24;9.68;;;6.72;;
70342;SDS011;57767;42.068;24.752;2023-07-13T06:00:27;9.00;;;6.43;;
70342;SDS011;57767;42.068;24.752;2023-07-13T06:01:29;9.60;;;7.07;;
70342;SDS011;57767;42.068;24.752;2023-07-13T06:02:31;13.80;;;7.03;;
70342;SDS011;57767;42.068;24.752;2023-07-13T06:03:33;11.63;;;7.18;;
70342;SDS011;57767;42.068;24.752;2023-07-13T06:04:35;10.73;;;6.68;;
70342;SDS011;57767;42.068;24.752;2023-07-13T06:05:37;11.15;;;6.57;;
70342;SDS011;57767;42.068;24.752;2023-07-13T06:06:39;10.10;;;7.05;;
70342;SDS011;57767;42.068;24.752;2023-07-13T06:07:41;12.70;;;7.43;;
70342;SDS011;57767;42.068;24.752;2023-07-13T06:08:43;12.65;;;7.28;;
70342;SDS011;57767;42.068;24.752;2023-07-13T06:09:45;15.25;;;6.85;;
70342;SDS011;57767;42.068;24.752;2023-07-13T06:10:47;10.20;;;6.80;;
70342;SDS011;57767;42.068;24.752;2023-07-13T06:11:48;10.05;;;7.00;;
70342;SDS011;57767;42.068;24.752;2023-07-13T06:12:50;9.38;;;7.07;;